createdAt,value
2019-02-19T00:01:46.904Z,94880.70
2019-02-19T00:04:15.521Z,94878.39
2019-02-19T00:06:44.121Z,94882.20
2019-02-19T00:09:12.772Z,94882.28
2019-02-19T00:11:41.674Z,94882.47
2019-02-19T00:14:10.285Z,94881.08
2019-02-19T00:16:38.856Z,94876.53
2019-02-19T00:19:07.460Z,94874.69
2019-02-19T00:21:36.029Z,94877.91
2019-02-19T00:24:04.701Z,94875.45
2019-02-19T00:26:33.313Z,94877.05
2019-02-19T00:29:01.923Z,94877.27
2019-02-19T00:31:30.806Z,94876.45
2019-02-19T00:33:59.678Z,94882.62
2019-02-19T00:36:28.259Z,94879.94
2019-02-19T00:38:56.845Z,94878.54
2019-02-19T00:41:25.438Z,94880.99
2019-02-19T00:43:54.030Z,94883.62
2019-02-19T00:46:22.622Z,94882.02
2019-02-19T00:48:52.273Z,94875.14
2019-02-19T00:51:20.878Z,94870.58
2019-02-19T00:53:49.467Z,94875.66
2019-02-19T00:56:18.071Z,94875.66
2019-02-19T00:58:46.685Z,94868.59
2019-02-19T01:01:15.297Z,94876.55
2019-02-19T01:03:44.010Z,94860.55
2019-02-19T01:06:12.922Z,94866.77
2019-02-19T01:08:41.861Z,94865.80
2019-02-19T01:11:10.480Z,94870.20
2019-02-19T01:13:39.303Z,94872.52
2019-02-19T01:16:08.078Z,94867.09
2019-02-19T01:18:36.744Z,94866.83
2019-02-19T01:21:05.657Z,94862.91
2019-02-19T01:23:34.240Z,94864.55
2019-02-19T01:26:02.917Z,94857.48
2019-02-19T01:28:31.506Z,94856.23
2019-02-19T01:31:00.077Z,94852.31
2019-02-19T01:33:28.672Z,94856.31
2019-02-19T01:35:57.528Z,94853.98
2019-02-19T01:38:26.354Z,94854.08
2019-02-19T01:40:54.939Z,94852.02
2019-02-19T01:43:23.827Z,94848.33
2019-02-19T01:45:52.400Z,94847.16
2019-02-19T01:48:21.075Z,94847.64
2019-02-19T01:50:49.691Z,94840.43
2019-02-19T01:53:18.271Z,94843.16
2019-02-19T01:55:46.973Z,94838.80
2019-02-19T01:58:15.556Z,94841.52
2019-02-19T02:00:44.407Z,94841.52
2019-02-19T02:03:12.995Z,94832.05
2019-02-19T02:05:41.589Z,94828.49
2019-02-19T02:08:10.284Z,94827.81
2019-02-19T02:10:38.878Z,94826.56
2019-02-19T02:13:07.689Z,94820.06
2019-02-19T02:15:42.493Z,94818.20
2019-02-19T02:18:06.678Z,94816.84
2019-02-19T02:20:35.561Z,94813.14
2019-02-19T02:23:04.296Z,94814.55
2019-02-19T02:25:32.934Z,94813.54
2019-02-19T02:28:01.525Z,94810.41
2019-02-19T02:30:30.127Z,94810.44
2019-02-19T02:32:58.713Z,94807.41
2019-02-19T02:35:27.386Z,94807.88
2019-02-19T02:37:55.998Z,94806.95
2019-02-19T02:40:24.628Z,94805.98
2019-02-19T02:42:53.226Z,94801.70
2019-02-19T02:45:22.078Z,94799.91
2019-02-19T02:47:50.641Z,94799.97
2019-02-19T02:50:19.523Z,94802.63
2019-02-19T02:52:48.383Z,94798.07
2019-02-19T02:55:17.218Z,94795.50
2019-02-19T02:57:45.827Z,94796.97
2019-02-19T03:00:14.459Z,94796.27
2019-02-19T03:02:43.219Z,94797.63
2019-02-19T03:05:11.817Z,94802.50
2019-02-19T03:07:43.432Z,94792.87
2019-02-19T03:10:12.358Z,94799.59
2019-02-19T03:12:40.972Z,94792.06
2019-02-19T03:15:10.085Z,94792.72
2019-02-19T03:17:38.737Z,94783.67
2019-02-19T03:20:07.478Z,94778.80
2019-02-19T03:22:36.421Z,94776.66
2019-02-19T03:25:05.136Z,94780.27
2019-02-19T03:27:34.775Z,94779.24
2019-02-19T03:30:03.474Z,94779.47
2019-02-19T03:32:32.293Z,94779.36
2019-02-19T03:35:00.878Z,94778.39
2019-02-19T03:37:29.496Z,94784.62
2019-02-19T03:39:58.121Z,94784.64
2019-02-19T03:42:26.650Z,94782.67
2019-02-19T03:44:55.226Z,94789.10
2019-02-19T03:47:23.881Z,94792.86
2019-02-19T03:49:52.483Z,94792.00
2019-02-19T03:52:21.333Z,94796.86
2019-02-19T03:54:49.960Z,94792.72
2019-02-19T03:57:18.531Z,94795.86
2019-02-19T03:59:47.338Z,94796.38
2019-02-19T04:02:16.020Z,94804.28
2019-02-19T04:04:44.694Z,94813.95
2019-02-19T04:07:13.515Z,94816.73
2019-02-19T04:09:42.141Z,94811.55
2019-02-19T04:12:10.724Z,94817.27
2019-02-19T04:14:39.355Z,94814.74
2019-02-19T04:17:08.171Z,94819.98
2019-02-19T04:19:36.772Z,94812.11
2019-02-19T04:22:05.419Z,94814.92
2019-02-19T04:24:34.000Z,94817.03
2019-02-19T04:27:02.623Z,94810.50
2019-02-19T04:29:31.200Z,94807.34
2019-02-19T04:31:59.812Z,94807.08
2019-02-19T04:34:28.435Z,94808.69
2019-02-19T04:36:57.074Z,94815.48
2019-02-19T04:39:25.662Z,94812.92
2019-02-19T04:41:55.232Z,94820.73
2019-02-19T04:44:24.143Z,94825.13
2019-02-19T04:46:52.731Z,94825.16
2019-02-19T04:49:21.359Z,94823.45
2019-02-19T04:51:49.971Z,94825.45
2019-02-19T04:54:18.808Z,94821.22
2019-02-19T04:56:47.409Z,94825.30
2019-02-19T04:59:16.026Z,94822.38
2019-02-19T05:01:44.621Z,94823.80
2019-02-19T05:04:13.215Z,94830.50
2019-02-19T05:06:41.884Z,94829.34
2019-02-19T05:09:10.484Z,94824.06
2019-02-19T05:11:39.066Z,94827.84
2019-02-19T05:14:07.673Z,94841.93
2019-02-19T05:16:40.792Z,94830.34
2019-02-19T05:19:06.904Z,94830.44
2019-02-19T05:21:35.754Z,94824.81
2019-02-19T05:24:04.666Z,94824.34
2019-02-19T05:26:33.238Z,94825.22
2019-02-19T05:29:02.112Z,94831.26
2019-02-19T05:31:30.683Z,94837.69
2019-02-19T05:33:59.251Z,94843.08
2019-02-19T05:36:27.853Z,94843.83
2019-02-19T05:38:56.436Z,94847.81
2019-02-19T05:41:25.031Z,94851.63
2019-02-19T05:43:53.607Z,94855.36
2019-02-19T05:46:22.204Z,94856.42
2019-02-19T05:48:50.790Z,94860.59
2019-02-19T05:51:19.487Z,94866.13
2019-02-19T05:53:48.058Z,94867.84
2019-02-19T05:56:16.770Z,94870.41
2019-02-19T05:58:45.364Z,94877.80
2019-02-19T06:01:14.070Z,94877.84
2019-02-19T06:03:42.700Z,94887.61
2019-02-19T06:06:11.409Z,94896.02
2019-02-19T06:08:40.355Z,94897.93
2019-02-19T06:11:09.276Z,94891.69
2019-02-19T06:13:38.047Z,94896.58
2019-02-19T06:16:06.678Z,94897.97
2019-02-19T06:18:35.294Z,94895.01
2019-02-19T06:21:03.876Z,94899.54
2019-02-19T06:23:32.490Z,94896.66
2019-02-19T06:26:01.116Z,94904.72
2019-02-19T06:28:30.019Z,94896.60
2019-02-19T06:30:58.624Z,94896.34
2019-02-19T06:33:27.242Z,94895.30
2019-02-19T06:35:55.982Z,94896.97
2019-02-19T06:38:24.941Z,94896.77
2019-02-19T06:40:54.161Z,94909.77
2019-02-19T06:43:22.807Z,94908.55
2019-02-19T06:45:51.744Z,94913.45
2019-02-19T06:48:20.450Z,94908.59
2019-02-19T06:50:49.072Z,94912.25
2019-02-19T06:53:17.818Z,94914.33
2019-02-19T06:55:46.665Z,94914.20
2019-02-19T06:58:16.317Z,94918.11
2019-02-19T07:00:45.202Z,94925.52
2019-02-19T07:03:19.003Z,94916.14
2019-02-19T07:05:47.611Z,94917.53
2019-02-19T07:08:16.574Z,94917.89
2019-02-19T07:10:45.295Z,94924.56
2019-02-19T07:13:14.148Z,94925.37
2019-02-19T07:15:43.231Z,94917.02
2019-02-19T07:18:11.863Z,94920.39
2019-02-19T07:20:40.480Z,94932.81
2019-02-19T07:23:09.095Z,94938.59
2019-02-19T07:25:37.916Z,94945.63
2019-02-19T07:28:06.601Z,94946.86
2019-02-19T07:30:35.269Z,94953.89
2019-02-19T07:33:03.857Z,94953.04
2019-02-19T07:35:32.471Z,94951.24
2019-02-19T07:38:01.064Z,94948.48
2019-02-19T07:40:29.795Z,94957.02
2019-02-19T07:42:58.423Z,94957.10
2019-02-19T07:45:27.047Z,94962.75
2019-02-19T07:47:55.669Z,94967.84
2019-02-19T07:50:24.264Z,94959.22
2019-02-19T07:52:52.872Z,94956.49
2019-02-19T07:55:21.559Z,94966.81
2019-02-19T07:57:50.414Z,94973.39
2019-02-19T08:00:19.388Z,94973.36
2019-02-19T08:02:48.027Z,94971.13
2019-02-19T08:05:16.652Z,94973.66
2019-02-19T08:07:45.306Z,94973.18
2019-02-19T08:10:14.037Z,94964.17
2019-02-19T08:12:42.736Z,94968.22
2019-02-19T08:15:11.455Z,94983.80
2019-02-19T08:17:40.047Z,94974.47
2019-02-19T08:20:15.315Z,94978.92
2019-02-19T08:22:39.219Z,94988.13
2019-02-19T08:25:08.020Z,94983.36
2019-02-19T08:27:36.634Z,94987.63
2019-02-19T08:30:05.740Z,94988.98
2019-02-19T08:32:34.374Z,94992.55
2019-02-19T08:35:03.145Z,94985.97
2019-02-19T08:37:31.801Z,94989.06
2019-02-19T08:40:00.360Z,94995.85
2019-02-19T08:42:28.951Z,94996.67
2019-02-19T08:44:57.836Z,95002.36
2019-02-19T08:47:26.969Z,95004.28
2019-02-19T08:49:55.614Z,95003.82
2019-02-19T08:52:24.631Z,95012.31
2019-02-19T08:54:53.284Z,95008.52
2019-02-19T08:57:21.875Z,95018.19
2019-02-19T08:59:50.769Z,95014.95
2019-02-19T09:02:19.442Z,95019.23
2019-02-19T09:04:48.260Z,95014.61
2019-02-19T09:07:16.862Z,95011.91
2019-02-19T09:09:45.431Z,95022.10
2019-02-19T09:12:14.044Z,95022.08
2019-02-19T09:14:42.630Z,95029.13
2019-02-19T09:17:11.223Z,95031.80
2019-02-19T09:19:39.868Z,95034.09
2019-02-19T09:22:08.484Z,95027.84
2019-02-19T09:24:37.113Z,95032.28
2019-02-19T09:27:05.695Z,95035.22
2019-02-19T09:29:34.559Z,95037.59
2019-02-19T09:32:03.146Z,95038.98
2019-02-19T09:34:31.730Z,95035.49
2019-02-19T09:37:00.301Z,95037.81
2019-02-19T09:39:28.923Z,95047.06
2019-02-19T09:41:57.506Z,95047.59
2019-02-19T09:44:26.129Z,95053.84
2019-02-19T09:46:54.734Z,95056.10
2019-02-19T09:49:23.596Z,95051.34
2019-02-19T09:51:52.197Z,95055.70
2019-02-19T09:54:20.854Z,95056.83
2019-02-19T09:56:49.437Z,95055.39
2019-02-19T09:59:19.026Z,95043.98
2019-02-19T10:01:47.854Z,95049.80
2019-02-19T10:04:16.456Z,95046.77
2019-02-19T10:06:45.539Z,95046.33
2019-02-19T10:09:14.384Z,95054.73
2019-02-19T10:11:42.962Z,95055.69
2019-02-19T10:14:11.563Z,95055.34
2019-02-19T10:16:41.922Z,95058.08
2019-02-19T10:19:10.569Z,95059.94
2019-02-19T10:21:39.403Z,95056.48
2019-02-19T10:24:08.067Z,95042.09
2019-02-19T10:26:36.657Z,95060.55
2019-02-19T10:29:05.910Z,95049.13
2019-02-19T10:31:34.508Z,95051.75
2019-02-19T10:34:03.096Z,95052.75
2019-02-19T10:36:31.707Z,95057.02
2019-02-19T10:39:00.334Z,95058.82
2019-02-19T10:41:29.196Z,95060.19
2019-02-19T10:43:57.775Z,95060.69
2019-02-19T10:46:26.356Z,95067.92
2019-02-19T10:48:54.935Z,95066.30
2019-02-19T10:51:23.521Z,95062.45
2019-02-19T10:53:52.108Z,95061.31
2019-02-19T10:56:20.708Z,95052.21
2019-02-19T10:58:49.272Z,95060.12
2019-02-19T11:01:17.878Z,95070.88
2019-02-19T11:03:46.465Z,95068.13
2019-02-19T11:06:15.150Z,95058.48
2019-02-19T11:08:43.760Z,95065.41
2019-02-19T11:11:12.362Z,95060.27
2019-02-19T11:13:41.379Z,95071.67
2019-02-19T11:16:09.992Z,95019.36
2019-02-19T11:18:39.068Z,95062.31
2019-02-19T11:21:07.700Z,95062.31
2019-02-19T11:23:36.306Z,95054.87
2019-02-19T11:26:04.893Z,95054.87
2019-02-19T11:28:33.697Z,95052.46
2019-02-19T11:31:02.323Z,95047.30
2019-02-19T11:33:31.435Z,95048.63
2019-02-19T11:36:00.071Z,95048.20
2019-02-19T11:38:28.666Z,95043.67
2019-02-19T11:40:57.345Z,95049.65
2019-02-19T11:43:26.296Z,95049.02
2019-02-19T11:45:55.321Z,95046.37
2019-02-19T11:48:23.926Z,95052.47
2019-02-19T11:50:52.523Z,95051.05
2019-02-19T11:53:22.308Z,95053.65
2019-02-19T11:55:50.992Z,95053.65
2019-02-19T11:58:20.283Z,95042.89
2019-02-19T12:00:48.945Z,95046.81
2019-02-19T12:03:17.609Z,95046.81
2019-02-19T12:05:46.310Z,95032.81
2019-02-19T12:08:15.086Z,95034.88
2019-02-19T12:10:43.680Z,95037.60
2019-02-19T12:13:12.277Z,95031.77
2019-02-19T12:15:41.113Z,95037.98
2019-02-19T12:18:09.698Z,95032.95
2019-02-19T12:20:38.311Z,95031.73
2019-02-19T12:23:07.083Z,95029.05
2019-02-19T12:25:35.685Z,95023.70
2019-02-19T12:28:04.530Z,95022.48
2019-02-19T12:30:33.213Z,95023.95
2019-02-19T12:33:01.972Z,95029.30
2019-02-19T12:35:30.606Z,95027.90
2019-02-19T12:37:59.302Z,95027.78
2019-02-19T12:40:27.947Z,95019.05
2019-02-19T12:42:56.463Z,95013.53
2019-02-19T12:45:25.052Z,95018.97
2019-02-19T12:47:53.678Z,95015.53
2019-02-19T12:50:22.327Z,95020.73
2019-02-19T12:52:51.157Z,95020.83
2019-02-19T12:55:19.771Z,95016.98
2019-02-19T12:57:48.381Z,95016.90
2019-02-19T13:00:17.094Z,95016.65
2019-02-19T13:02:45.891Z,95014.11
2019-02-19T13:05:14.624Z,95013.77
2019-02-19T13:07:43.277Z,95015.80
2019-02-19T13:10:12.220Z,95008.75
2019-02-19T13:12:41.050Z,95009.57
2019-02-19T13:15:11.477Z,95013.96
2019-02-19T13:17:40.312Z,95016.89
2019-02-19T13:20:10.683Z,95014.50
2019-02-19T13:22:39.255Z,95018.55
2019-02-19T13:25:08.555Z,95024.17
2019-02-19T13:27:37.126Z,95025.89
2019-02-19T13:30:07.266Z,95021.23
2019-02-19T13:32:36.194Z,95017.61
2019-02-19T13:35:05.119Z,95020.84
2019-02-19T13:37:33.709Z,95026.21
2019-02-19T13:40:02.321Z,95030.31
2019-02-19T13:42:30.905Z,95019.77
2019-02-19T13:44:59.506Z,95035.13
2019-02-19T13:47:28.159Z,95032.72
2019-02-19T13:49:56.978Z,95040.16
2019-02-19T13:52:39.644Z,95035.61
2019-02-19T13:55:15.369Z,95038.52
2019-02-19T13:57:44.002Z,95039.78
2019-02-19T14:00:18.380Z,95037.48
2019-02-19T14:02:46.974Z,95042.69
2019-02-19T14:05:15.559Z,95050.91
2019-02-19T14:07:44.146Z,95052.16
2019-02-19T14:10:12.926Z,95045.70
2019-02-19T14:12:41.532Z,95054.66
2019-02-19T14:15:29.373Z,95056.35
2019-02-19T14:17:58.691Z,95049.19
2019-02-19T14:20:34.250Z,95056.38
2019-02-19T14:23:15.428Z,95058.11
2019-02-19T14:26:09.473Z,95058.66
2019-02-19T14:28:57.061Z,95051.09
2019-02-19T14:31:43.174Z,95059.48
2019-02-19T14:34:23.154Z,95063.20
2019-02-19T14:37:09.326Z,95071.47
2019-02-19T14:39:57.770Z,95070.17
2019-02-19T14:42:38.355Z,95072.77
2019-02-19T14:45:14.481Z,95083.84
2019-02-19T14:48:14.088Z,95077.08
2019-02-19T14:50:53.445Z,95082.08
2019-02-19T14:53:59.122Z,95074.61
2019-02-19T14:56:35.116Z,95085.73
2019-02-19T14:59:21.090Z,95086.28
2019-02-19T15:02:08.103Z,95085.63
2019-02-19T15:04:56.814Z,95089.09
2019-02-19T15:07:32.310Z,95083.85
2019-02-19T15:10:32.354Z,95083.85
2019-02-19T15:13:11.090Z,95078.97
2019-02-19T15:15:57.499Z,95087.45
2019-02-19T15:18:43.788Z,95087.45
2019-02-19T15:21:26.803Z,95083.95
2019-02-19T15:24:26.435Z,95079.41
2019-02-19T15:27:12.929Z,95079.41
2019-02-19T15:29:59.517Z,95087.58
2019-02-19T15:32:41.395Z,95099.33
2019-02-19T15:35:27.812Z,95091.05
2019-02-19T15:38:16.330Z,95091.05
2019-02-19T15:41:07.051Z,95100.66
2019-02-19T15:43:51.248Z,95094.63
2019-02-19T15:46:45.272Z,95094.63
2019-02-19T15:49:31.867Z,95100.12
2019-02-19T15:52:23.568Z,95100.16
2019-02-19T15:55:11.335Z,95107.18
2019-02-19T15:57:53.560Z,95112.62
2019-02-19T16:00:47.332Z,95111.47
2019-02-19T16:03:23.082Z,95115.83
2019-02-19T16:05:56.721Z,95113.53
2019-02-19T16:08:33.693Z,95113.53
2019-02-19T16:11:10.369Z,95107.23
2019-02-19T16:13:51.589Z,95107.23
2019-02-19T16:16:48.697Z,95120.58
2019-02-19T16:19:25.402Z,95112.84
2019-02-19T16:22:16.262Z,95113.13
2019-02-19T16:25:16.422Z,95108.06
2019-02-19T16:27:58.363Z,95109.61
2019-02-19T16:30:46.098Z,95113.13
2019-02-19T16:33:33.183Z,95113.13
2019-02-19T16:36:30.404Z,95113.13
2019-02-19T16:39:13.506Z,95115.14
2019-02-19T16:41:51.480Z,95115.14
2019-02-19T16:44:48.256Z,95109.28
2019-02-19T16:47:42.730Z,95116.05
2019-02-19T16:50:30.105Z,95122.66
2019-02-19T16:53:03.461Z,95122.66
2019-02-19T16:55:38.764Z,95122.42
2019-02-19T16:58:16.785Z,95117.77
2019-02-19T17:00:55.096Z,95122.12
2019-02-19T17:03:38.184Z,95123.27
2019-02-19T17:06:22.396Z,95125.23
2019-02-19T17:09:02.376Z,95129.16
2019-02-19T17:11:44.918Z,95124.61
2019-02-19T17:14:33.554Z,95124.61
2019-02-19T17:17:14.318Z,95128.76
2019-02-19T17:20:17.565Z,95137.87
2019-02-19T17:22:48.830Z,95135.31
2019-02-19T17:25:35.082Z,95153.80
2019-02-19T17:28:18.051Z,95152.09
2019-02-19T17:31:04.699Z,95150.49
2019-02-19T17:33:51.149Z,95159.08
2019-02-19T17:36:32.055Z,95165.92
2019-02-19T17:39:34.670Z,95167.05
2019-02-19T17:42:11.020Z,95163.16
2019-02-19T17:44:54.132Z,95168.22
2019-02-19T17:47:40.006Z,95170.30
2019-02-19T17:50:15.814Z,95169.98
2019-02-19T17:53:06.773Z,95172.84
2019-02-19T17:55:52.225Z,95177.78
2019-02-19T17:58:38.527Z,95174.83
2019-02-19T18:01:26.395Z,95180.89
2019-02-19T18:04:04.332Z,95172.55
2019-02-19T18:07:09.918Z,95173.64
2019-02-19T18:09:58.448Z,95178.44
2019-02-19T18:12:44.474Z,95180.20
2019-02-19T18:15:31.039Z,95177.27
2019-02-19T18:18:19.899Z,95175.89
2019-02-19T18:20:48.920Z,95181.39
2019-02-19T18:23:17.508Z,95189.05
2019-02-19T18:25:46.304Z,95189.72
2019-02-19T18:28:14.938Z,95185.58
2019-02-19T18:30:43.567Z,95190.99
2019-02-19T18:33:12.199Z,95191.77
2019-02-19T18:35:41.339Z,95190.20
2019-02-19T18:38:09.978Z,95189.42
2019-02-19T18:40:38.580Z,95184.28
2019-02-19T18:43:07.261Z,95191.42
2019-02-19T18:45:36.116Z,95188.75
2019-02-19T18:48:04.727Z,95188.03
2019-02-19T18:50:33.316Z,95197.19
2019-02-19T18:53:02.149Z,95197.03
2019-02-19T18:55:30.742Z,95197.19
2019-02-19T18:57:59.328Z,95204.57
2019-02-19T19:00:28.070Z,95199.35
2019-02-19T19:02:56.905Z,95196.54
2019-02-19T19:05:25.584Z,95202.89
2019-02-19T19:07:54.306Z,95201.81
2019-02-19T19:10:23.158Z,95199.16
2019-02-19T19:12:51.984Z,95203.21
2019-02-19T19:15:20.970Z,95202.04
2019-02-19T19:17:49.790Z,95209.03
2019-02-19T19:20:18.530Z,95204.88
2019-02-19T19:22:47.329Z,95208.70
2019-02-19T19:25:16.541Z,95211.11
2019-02-19T19:27:45.144Z,95207.67
2019-02-19T19:30:13.746Z,95205.28
2019-02-19T19:32:42.524Z,95207.48
2019-02-19T19:35:11.221Z,95214.81
2019-02-19T19:37:40.073Z,95221.23
2019-02-19T19:40:08.717Z,95222.67
2019-02-19T19:42:37.497Z,95226.26
2019-02-19T19:45:06.412Z,95231.03
2019-02-19T19:47:35.005Z,95225.13
2019-02-19T19:50:03.712Z,95228.72
2019-02-19T19:52:33.314Z,95229.19
2019-02-19T19:55:01.885Z,95232.61
2019-02-19T19:57:30.503Z,95233.91
2019-02-19T19:59:59.133Z,95230.86
2019-02-19T20:02:27.726Z,95242.08
2019-02-19T20:04:56.329Z,95235.05
2019-02-19T20:07:24.919Z,95238.59
2019-02-19T20:09:53.840Z,95232.31
2019-02-19T20:12:22.788Z,95234.12
2019-02-19T20:14:51.497Z,95239.32
2019-02-19T20:17:20.397Z,95229.94
2019-02-19T20:19:50.000Z,95228.11
2019-02-19T20:22:18.673Z,95243.37
2019-02-19T20:24:47.326Z,95233.34
2019-02-19T20:27:15.932Z,95235.42
2019-02-19T20:29:44.558Z,95234.42
2019-02-19T20:32:13.741Z,95233.25
2019-02-19T20:34:42.354Z,95236.09
2019-02-19T20:37:11.138Z,95242.98
2019-02-19T20:39:39.764Z,95241.22
2019-02-19T20:42:08.459Z,95244.11
2019-02-19T20:44:37.089Z,95246.31
2019-02-19T20:47:05.958Z,95250.49
2019-02-19T20:49:34.782Z,95245.91
2019-02-19T20:52:03.676Z,95247.60
2019-02-19T20:54:32.635Z,95251.84
2019-02-19T20:57:01.211Z,95251.92
2019-02-19T20:59:30.398Z,95249.07
2019-02-19T21:01:59.096Z,95254.19
2019-02-19T21:04:28.502Z,95258.20
2019-02-19T21:06:57.082Z,95256.28
2019-02-19T21:09:25.836Z,95253.66
2019-02-19T21:11:54.515Z,95254.69
2019-02-19T21:14:23.126Z,95252.35
2019-02-19T21:16:51.734Z,95257.05
2019-02-19T21:19:20.332Z,95255.25
2019-02-19T21:21:48.914Z,95263.74
2019-02-19T21:24:17.563Z,95263.55
2019-02-19T21:26:46.328Z,95268.39
2019-02-19T21:29:15.276Z,95268.18
2019-02-19T21:31:45.056Z,95267.44
2019-02-19T21:34:13.674Z,95268.90
2019-02-19T21:36:42.382Z,95261.88
2019-02-19T21:39:11.206Z,95266.47
2019-02-19T21:41:39.827Z,95267.45
2019-02-19T21:44:08.642Z,95265.58
2019-02-19T21:46:37.255Z,95274.03
2019-02-19T21:49:05.808Z,95275.18
2019-02-19T21:51:36.185Z,95267.61
2019-02-19T21:54:05.003Z,95269.13
2019-02-19T21:56:33.513Z,95264.88
2019-02-19T21:59:02.285Z,95266.83
2019-02-19T22:01:31.175Z,95268.54
2019-02-19T22:03:59.840Z,95265.95
2019-02-19T22:06:28.413Z,95261.23
2019-02-19T22:08:57.056Z,95264.00
2019-02-19T22:11:25.628Z,95259.00
2019-02-19T22:13:54.255Z,95257.73
2019-02-19T22:16:22.958Z,95256.89
2019-02-19T22:18:52.208Z,95261.11
2019-02-19T22:21:46.077Z,95257.52
2019-02-19T22:24:16.290Z,95261.91
2019-02-19T22:26:44.886Z,95265.14
2019-02-19T22:29:13.485Z,95266.76
2019-02-19T22:31:42.127Z,95267.31
2019-02-19T22:34:11.026Z,95264.36
2019-02-19T22:36:39.628Z,95263.20
2019-02-19T22:39:08.394Z,95259.58
2019-02-19T22:41:37.263Z,95261.16
2019-02-19T22:44:05.869Z,95257.31
2019-02-19T22:46:34.494Z,95263.08
2019-02-19T22:49:03.328Z,95265.89
2019-02-19T22:51:32.429Z,95272.33
2019-02-19T22:54:20.062Z,95271.73
2019-02-19T22:56:48.990Z,95278.13
2019-02-19T22:59:17.844Z,95272.62
2019-02-19T23:01:51.795Z,95275.23
2019-02-19T23:04:20.368Z,95287.26
2019-02-19T23:06:49.203Z,95279.47
2019-02-19T23:09:17.803Z,95277.07
2019-02-19T23:11:46.410Z,95278.50
2019-02-19T23:14:15.039Z,95278.00
2019-02-19T23:16:43.647Z,95274.67
2019-02-19T23:19:12.303Z,95278.17
2019-02-19T23:21:41.527Z,95281.70
2019-02-19T23:24:10.481Z,95281.63
2019-02-19T23:26:39.063Z,95283.92
2019-02-19T23:29:07.664Z,95280.60
2019-02-19T23:31:36.484Z,95281.88
2019-02-19T23:34:05.158Z,95286.16
2019-02-19T23:36:43.872Z,95282.15
2019-02-19T23:39:12.716Z,95285.05
2019-02-19T23:41:41.307Z,95283.09
2019-02-19T23:44:09.872Z,95278.80
2019-02-19T23:46:38.492Z,95279.95
2019-02-19T23:51:41.592Z,95295.56
2019-02-19T23:54:10.664Z,95285.02
2019-02-19T23:56:39.409Z,95284.13
2019-02-19T23:59:08.322Z,95280.76
